createdAt,value
2022-08-25T00:00:04.344Z,1.42
2022-08-25T00:05:32.211Z,1.20
2022-08-25T00:10:40.720Z,1.77
2022-08-25T00:15:48.208Z,1.17
2022-08-25T00:20:55.147Z,1.40
2022-08-25T00:26:00.796Z,1.60
2022-08-25T00:31:08.378Z,1.60
2022-08-25T00:36:13.934Z,1.77
2022-08-25T00:41:21.880Z,1.80
2022-08-25T00:46:31.825Z,1.92
2022-08-25T00:51:43.220Z,1.67
2022-08-25T00:56:49.344Z,1.33
2022-08-25T01:01:57.994Z,1.88
2022-08-25T01:07:04.535Z,1.45
2022-08-25T01:12:10.829Z,2.03
2022-08-25T01:17:18.402Z,1.70
2022-08-25T01:22:27.016Z,2.20
2022-08-25T01:32:38.292Z,1.52
2022-08-25T01:37:45.609Z,1.95
2022-08-25T01:43:00.476Z,1.75
2022-08-25T01:48:08.529Z,2.78
2022-08-25T01:53:20.711Z,1.67
2022-08-25T01:58:30.211Z,2.08
2022-08-25T02:03:42.122Z,2.00
2022-08-25T02:08:52.974Z,2.10
2022-08-25T02:13:59.614Z,2.13
2022-08-25T02:19:07.256Z,1.90
2022-08-25T02:24:15.225Z,1.90
2022-08-25T02:29:23.146Z,1.70
2022-08-25T02:34:28.652Z,1.97
2022-08-25T02:39:35.673Z,2.03
2022-08-25T02:44:42.710Z,2.38
2022-08-25T02:49:48.786Z,2.63
2022-08-25T02:54:56.123Z,2.35
2022-08-25T03:00:01.934Z,2.60
2022-08-25T03:05:09.683Z,2.28
2022-08-25T03:10:20.031Z,4.03
2022-08-25T03:15:28.004Z,2.42
2022-08-25T03:20:37.143Z,2.70
2022-08-25T03:26:02.136Z,2.25
2022-08-25T03:31:08.106Z,2.78
2022-08-25T03:36:13.864Z,2.10
2022-08-25T03:41:23.014Z,2.85
2022-08-25T03:46:31.250Z,3.22
2022-08-25T03:51:40.813Z,3.08
2022-08-25T03:56:48.774Z,2.80
2022-08-25T04:01:55.505Z,2.73
2022-08-25T04:07:01.145Z,4.07
2022-08-25T04:12:09.438Z,2.55
2022-08-25T04:17:15.070Z,2.23
2022-08-25T04:22:20.811Z,2.70
2022-08-25T04:27:27.838Z,3.58
2022-08-25T04:32:33.704Z,3.72
2022-08-25T04:37:40.261Z,2.97
2022-08-25T04:42:48.131Z,4.03
2022-08-25T04:47:55.183Z,2.72
2022-08-25T04:53:01.684Z,3.10
2022-08-25T04:58:14.639Z,3.35
2022-08-25T05:03:22.215Z,3.20
2022-08-25T05:08:28.086Z,3.60
2022-08-25T05:13:35.976Z,3.33
2022-08-25T05:18:42.010Z,2.80
2022-08-25T05:23:48.085Z,2.85
2022-08-25T05:28:56.415Z,3.53
2022-08-25T05:34:02.861Z,3.90
2022-08-25T05:39:08.460Z,3.25
2022-08-25T05:44:20.539Z,4.00
2022-08-25T05:49:27.775Z,3.45
2022-08-25T05:54:33.353Z,3.35
2022-08-25T05:59:40.293Z,3.97
2022-08-25T06:04:46.107Z,3.13
2022-08-25T06:09:51.698Z,3.47
2022-08-25T06:14:58.956Z,3.35
2022-08-25T06:20:06.001Z,5.07
2022-08-25T06:25:14.805Z,4.57
2022-08-25T06:30:24.500Z,3.33
2022-08-25T06:35:34.643Z,4.43
2022-08-25T06:40:40.932Z,3.03
2022-08-25T06:45:48.812Z,5.10
2022-08-25T06:50:54.589Z,3.97
2022-08-25T06:56:05.935Z,4.20
2022-08-25T07:01:19.637Z,3.85
2022-08-25T07:06:28.085Z,3.60
2022-08-25T07:11:35.931Z,3.65
2022-08-25T07:16:48.582Z,4.70
2022-08-25T07:21:55.667Z,5.03
2022-08-25T07:27:01.428Z,3.88
2022-08-25T07:32:08.796Z,3.92
2022-08-25T07:37:27.560Z,4.43
2022-08-25T07:42:42.349Z,4.28
2022-08-25T07:47:51.581Z,4.05
2022-08-25T07:52:58.003Z,4.38
2022-08-25T07:58:04.619Z,4.43
2022-08-25T08:03:19.810Z,4.03
2022-08-25T08:13:44.367Z,4.43
2022-08-25T08:18:51.812Z,4.25
2022-08-25T08:23:59.156Z,3.60
2022-08-25T08:29:04.705Z,4.20
2022-08-25T08:34:13.841Z,4.18
2022-08-25T08:39:19.466Z,4.38
2022-08-25T08:44:29.788Z,4.28
2022-08-25T08:49:46.262Z,4.45
2022-08-25T08:54:57.826Z,4.43
2022-08-25T09:00:06.487Z,4.07
2022-08-25T09:05:19.577Z,4.20
2022-08-25T09:10:26.704Z,4.30
2022-08-25T09:15:58.302Z,5.22
2022-08-25T09:21:11.172Z,3.95
2022-08-25T09:26:27.693Z,4.80
2022-08-25T09:31:35.911Z,3.90
2022-08-25T09:41:52.708Z,4.18
2022-08-25T09:47:03.280Z,4.22
2022-08-25T09:52:37.319Z,4.47
2022-08-25T09:57:47.791Z,4.22
2022-08-25T10:03:12.153Z,4.55
2022-08-25T10:08:31.738Z,4.20
2022-08-25T10:13:42.580Z,4.82
2022-08-25T10:19:02.804Z,6.00
2022-08-25T10:24:12.188Z,5.32
2022-08-25T10:29:28.177Z,6.07
2022-08-25T10:34:46.387Z,4.10
2022-08-25T10:40:06.973Z,4.47
2022-08-25T10:45:40.476Z,4.97
2022-08-25T10:50:50.643Z,5.22
2022-08-25T10:56:07.178Z,4.80
2022-08-25T11:01:20.117Z,4.55
2022-08-25T11:06:41.260Z,4.97
2022-08-25T11:11:52.171Z,6.43
2022-08-25T11:17:02.690Z,4.35
2022-08-25T11:22:15.527Z,4.35
2022-08-25T11:27:30.497Z,4.47
2022-08-25T11:32:36.509Z,4.15
2022-08-25T11:37:47.972Z,3.97
2022-08-25T11:43:03.823Z,3.90
2022-08-25T11:48:23.920Z,4.63
2022-08-25T11:53:31.374Z,4.03
2022-08-25T11:58:45.207Z,3.87
2022-08-25T12:04:16.420Z,3.80
2022-08-25T12:09:23.907Z,3.65
2022-08-25T12:14:48.579Z,3.38
2022-08-25T12:20:00.868Z,3.30
2022-08-25T12:25:11.893Z,3.25
2022-08-25T12:30:23.728Z,3.60
2022-08-25T12:35:34.238Z,3.60
2022-08-25T12:40:59.162Z,3.20
2022-08-25T12:46:38.442Z,3.40
2022-08-25T12:51:57.395Z,2.90
2022-08-25T12:57:25.083Z,2.83
2022-08-25T13:03:13.916Z,2.67
2022-08-25T13:08:47.039Z,2.90
2022-08-25T13:13:56.869Z,2.83
2022-08-25T13:19:07.728Z,1.98
2022-08-25T13:24:19.073Z,1.90
2022-08-25T13:29:28.127Z,2.20
2022-08-25T13:34:37.803Z,1.65
2022-08-25T13:39:56.626Z,1.95
2022-08-25T13:45:06.354Z,2.08
2022-08-25T13:50:21.693Z,2.65
2022-08-25T13:55:38.306Z,2.10
2022-08-25T14:01:23.296Z,2.20
2022-08-25T14:06:37.313Z,2.00
2022-08-25T14:11:45.803Z,1.90
2022-08-25T14:16:57.386Z,2.00
2022-08-25T14:22:05.328Z,1.77
2022-08-25T14:27:11.919Z,2.20
2022-08-25T14:32:18.209Z,2.33
2022-08-25T14:37:25.960Z,2.10
2022-08-25T14:42:31.501Z,1.40
2022-08-25T14:47:36.917Z,1.83
2022-08-25T14:52:44.845Z,1.85
2022-08-25T15:02:56.921Z,1.70
2022-08-25T15:08:20.899Z,1.73
2022-08-25T15:13:28.326Z,1.52
2022-08-25T15:18:34.145Z,1.80
2022-08-25T15:23:41.501Z,1.38
2022-08-25T15:28:51.627Z,1.75
2022-08-25T15:33:57.974Z,2.08
2022-08-25T15:39:06.506Z,2.10
2022-08-25T15:44:12.472Z,1.77
2022-08-25T15:49:23.126Z,2.15
2022-08-25T15:54:31.254Z,1.67
2022-08-25T15:59:40.217Z,2.25
2022-08-25T16:04:47.291Z,1.65
2022-08-25T16:09:57.223Z,1.98
2022-08-25T16:15:03.721Z,1.70
2022-08-25T16:20:13.899Z,1.40
2022-08-25T16:25:21.527Z,2.22
2022-08-25T16:30:27.203Z,1.83
2022-08-25T16:35:33.639Z,1.50
2022-08-25T16:40:44.359Z,1.67
2022-08-25T16:51:08.509Z,1.90
2022-08-25T16:56:17.076Z,2.33
2022-08-25T17:01:23.562Z,2.15
2022-08-25T17:06:31.176Z,2.00
2022-08-25T17:11:45.619Z,1.95
2022-08-25T17:16:54.981Z,2.00
2022-08-25T17:22:00.842Z,2.47
2022-08-25T17:27:08.461Z,2.17
2022-08-25T17:32:14.136Z,2.20
2022-08-25T17:37:20.360Z,2.10
2022-08-25T17:42:30.208Z,2.72
2022-08-25T17:47:36.869Z,2.45
2022-08-25T17:52:42.694Z,2.40
2022-08-25T17:57:49.967Z,2.50
2022-08-25T18:02:57.558Z,3.20
2022-08-25T18:08:04.389Z,5.57
2022-08-25T18:13:18.054Z,4.82
2022-08-25T18:18:24.917Z,3.47
2022-08-25T18:23:30.820Z,3.20
2022-08-25T18:28:38.110Z,5.78
2022-08-25T18:33:45.300Z,3.83
2022-08-25T18:39:09.003Z,3.47
2022-08-25T18:44:16.293Z,3.95
2022-08-25T18:49:22.081Z,4.47
2022-08-25T18:54:32.342Z,3.67
2022-08-25T18:59:43.434Z,3.70
2022-08-25T19:04:53.354Z,3.88
2022-08-25T19:09:59.577Z,3.40
2022-08-25T19:15:08.399Z,2.95
2022-08-25T19:20:14.806Z,3.58
2022-08-25T19:25:21.418Z,2.85
2022-08-25T19:30:30.852Z,3.00
2022-08-25T19:35:46.327Z,3.15
2022-08-25T19:40:52.983Z,3.33
2022-08-25T19:46:00.321Z,3.20
2022-08-25T19:51:06.295Z,3.28
2022-08-25T19:56:17.510Z,3.13
2022-08-25T20:01:24.938Z,3.67
2022-08-25T20:06:31.904Z,3.50
2022-08-25T20:11:38.288Z,4.80
2022-08-25T20:16:46.186Z,3.67
2022-08-25T20:21:57.219Z,4.38
2022-08-25T20:27:03.946Z,4.88
2022-08-25T20:32:11.306Z,4.70
2022-08-25T20:37:17.342Z,4.57
2022-08-25T20:42:25.171Z,3.30
2022-08-25T20:47:33.967Z,3.50
2022-08-25T20:52:43.669Z,3.83
2022-08-25T20:57:50.049Z,3.53
2022-08-25T21:02:57.258Z,3.50
2022-08-25T21:08:03.003Z,3.50
2022-08-25T21:13:09.172Z,3.85
2022-08-25T21:18:16.603Z,3.63
2022-08-25T21:23:22.509Z,3.22
2022-08-25T21:28:28.671Z,3.60
2022-08-25T21:33:36.337Z,3.97
2022-08-25T21:38:43.044Z,3.22
2022-08-25T21:43:50.130Z,3.65
2022-08-25T21:48:57.439Z,3.95
2022-08-25T21:54:13.294Z,3.53
2022-08-25T21:59:22.298Z,3.00
2022-08-25T22:04:30.579Z,3.63
2022-08-25T22:09:37.525Z,3.72
2022-08-25T22:14:43.787Z,3.55
2022-08-25T22:19:53.888Z,4.32
2022-08-25T22:24:59.890Z,4.43
2022-08-25T22:30:06.794Z,4.90
2022-08-25T22:35:14.154Z,4.15
2022-08-25T22:40:20.361Z,3.80
2022-08-25T22:45:27.344Z,4.32
2022-08-25T22:50:36.461Z,7.75
2022-08-25T22:55:45.478Z,15.65
2022-08-25T23:00:52.284Z,15.05
2022-08-25T23:06:00.124Z,13.75
2022-08-25T23:16:13.015Z,12.43
2022-08-25T23:21:41.250Z,14.50
2022-08-25T23:26:51.141Z,13.73
2022-08-25T23:31:57.778Z,9.23
2022-08-25T23:37:06.160Z,9.15
2022-08-25T23:42:11.624Z,8.03
2022-08-25T23:47:17.306Z,8.27
2022-08-25T23:52:24.271Z,6.82
2022-08-25T23:57:30.509Z,11.18
